sensor_id;sensor_type;location;lat;lon;timestamp;P1;durP1;ratioP1;P2;durP2;ratioP2
18659;SDS011;9459;50.254;19.014;2023-07-31T00:00:03;4.63;;;2.50;;
18659;SDS011;9459;50.254;19.014;2023-07-31T00:02:33;5.88;;;2.50;;
18659;SDS011;9459;50.254;19.014;2023-07-31T00:05:03;2.95;;;2.65;;
18659;SDS011;9459;50.254;19.014;2023-07-31T00:07:32;3.80;;;2.97;;
18659;SDS011;9459;50.254;19.014;2023-07-31T00:10:00;3.28;;;2.70;;
18659;SDS011;9459;50.254;19.014;2023-07-31T00:12:29;3.15;;;2.65;;
18659;SDS011;9459;50.254;19.014;2023-07-31T00:14:58;4.13;;;2.50;;
18659;SDS011;9459;50.254;19.014;2023-07-31T00:17:26;2.83;;;2.50;;
18659;SDS011;9459;50.254;19.014;2023-07-31T00:19:55;3.70;;;2.53;;
18659;SDS011;9459;50.254;19.014;2023-07-31T00:22:25;4.03;;;2.92;;
18659;SDS011;9459;50.254;19.014;2023-07-31T00:24:53;3.72;;;2.50;;
18659;SDS011;9459;50.254;19.014;2023-07-31T00:27:22;4.28;;;2.70;;
18659;SDS011;9459;50.254;19.014;2023-07-31T00:29:50;3.22;;;2.33;;
18659;SDS011;9459;50.254;19.014;2023-07-31T00:32:19;3.58;;;2.88;;
18659;SDS011;9459;50.254;19.014;2023-07-31T00:34:47;2.85;;;2.55;;
18659;SDS011;9459;50.254;19.014;2023-07-31T00:37:16;4.18;;;3.05;;
18659;SDS011;9459;50.254;19.014;2023-07-31T00:39:46;6.75;;;3.65;;
18659;SDS011;9459;50.254;19.014;2023-07-31T00:42:14;5.75;;;3.67;;
18659;SDS011;9459;50.254;19.014;2023-07-31T00:44:43;4.13;;;3.17;;
18659;SDS011;9459;50.254;19.014;2023-07-31T00:47:11;4.47;;;3.30;;
18659;SDS011;9459;50.254;19.014;2023-07-31T00:49:40;3.97;;;3.20;;
18659;SDS011;9459;50.254;19.014;2023-07-31T00:52:08;3.67;;;3.10;;
18659;SDS011;9459;50.254;19.014;2023-07-31T00:54:37;4.65;;;2.75;;
18659;SDS011;9459;50.254;19.014;2023-07-31T00:57:07;3.70;;;2.92;;
18659;SDS011;9459;50.254;19.014;2023-07-31T00:59:35;4.18;;;2.67;;
18659;SDS011;9459;50.254;19.014;2023-07-31T01:02:04;3.58;;;2.58;;
18659;SDS011;9459;50.254;19.014;2023-07-31T01:04:33;2.80;;;2.50;;
18659;SDS011;9459;50.254;19.014;2023-07-31T01:07:08;3.33;;;2.33;;
18659;SDS011;9459;50.254;19.014;2023-07-31T01:09:40;3.33;;;2.40;;
18659;SDS011;9459;50.254;19.014;2023-07-31T01:12:14;3.20;;;2.38;;
18659;SDS011;9459;50.254;19.014;2023-07-31T01:14:50;2.58;;;2.38;;
18659;SDS011;9459;50.254;19.014;2023-07-31T01:17:19;2.63;;;2.25;;
18659;SDS011;9459;50.254;19.014;2023-07-31T01:19:48;3.00;;;2.47;;
18659;SDS011;9459;50.254;19.014;2023-07-31T01:22:28;3.65;;;2.17;;
18659;SDS011;9459;50.254;19.014;2023-07-31T01:25:05;3.42;;;2.42;;
18659;SDS011;9459;50.254;19.014;2023-07-31T01:27:47;2.53;;;2.30;;
18659;SDS011;9459;50.254;19.014;2023-07-31T01:30:21;3.30;;;2.78;;
18659;SDS011;9459;50.254;19.014;2023-07-31T01:32:51;4.18;;;2.20;;
18659;SDS011;9459;50.254;19.014;2023-07-31T01:35:22;3.33;;;2.30;;
18659;SDS011;9459;50.254;19.014;2023-07-31T01:37:52;3.38;;;2.70;;
18659;SDS011;9459;50.254;19.014;2023-07-31T01:40:21;2.65;;;1.95;;
18659;SDS011;9459;50.254;19.014;2023-07-31T01:42:53;2.88;;;2.00;;
18659;SDS011;9459;50.254;19.014;2023-07-31T01:45:21;4.55;;;2.20;;
18659;SDS011;9459;50.254;19.014;2023-07-31T01:47:50;3.03;;;2.40;;
18659;SDS011;9459;50.254;19.014;2023-07-31T01:50:18;3.38;;;2.40;;
18659;SDS011;9459;50.254;19.014;2023-07-31T01:52:47;6.05;;;2.78;;
18659;SDS011;9459;50.254;19.014;2023-07-31T01:55:15;5.85;;;2.40;;
18659;SDS011;9459;50.254;19.014;2023-07-31T01:57:44;2.88;;;2.08;;
18659;SDS011;9459;50.254;19.014;2023-07-31T02:00:14;3.28;;;2.30;;
18659;SDS011;9459;50.254;19.014;2023-07-31T02:02:43;2.95;;;1.60;;
18659;SDS011;9459;50.254;19.014;2023-07-31T02:05:11;2.90;;;1.98;;
18659;SDS011;9459;50.254;19.014;2023-07-31T02:07:40;2.42;;;1.67;;
18659;SDS011;9459;50.254;19.014;2023-07-31T02:10:08;2.10;;;1.90;;
18659;SDS011;9459;50.254;19.014;2023-07-31T02:12:37;3.13;;;2.00;;
18659;SDS011;9459;50.254;19.014;2023-07-31T02:15:06;3.30;;;1.83;;
18659;SDS011;9459;50.254;19.014;2023-07-31T02:17:36;2.30;;;1.70;;
18659;SDS011;9459;50.254;19.014;2023-07-31T02:20:05;2.08;;;1.58;;
18659;SDS011;9459;50.254;19.014;2023-07-31T02:22:34;2.63;;;1.65;;
18659;SDS011;9459;50.254;19.014;2023-07-31T02:25:03;2.42;;;1.75;;
18659;SDS011;9459;50.254;19.014;2023-07-31T02:27:32;7.32;;;2.00;;
18659;SDS011;9459;50.254;19.014;2023-07-31T02:30:00;2.72;;;1.70;;
18659;SDS011;9459;50.254;19.014;2023-07-31T02:32:29;2.38;;;1.95;;
18659;SDS011;9459;50.254;19.014;2023-07-31T02:34:59;3.95;;;2.33;;
18659;SDS011;9459;50.254;19.014;2023-07-31T02:37:27;4.75;;;1.90;;
18659;SDS011;9459;50.254;19.014;2023-07-31T02:39:56;2.67;;;2.00;;
18659;SDS011;9459;50.254;19.014;2023-07-31T02:42:25;2.30;;;1.80;;
18659;SDS011;9459;50.254;19.014;2023-07-31T02:44:53;3.83;;;1.55;;
18659;SDS011;9459;50.254;19.014;2023-07-31T02:47:22;4.38;;;1.90;;
18659;SDS011;9459;50.254;19.014;2023-07-31T02:49:51;3.13;;;2.00;;
18659;SDS011;9459;50.254;19.014;2023-07-31T02:52:21;3.40;;;2.10;;
18659;SDS011;9459;50.254;19.014;2023-07-31T02:54:49;2.67;;;1.95;;
18659;SDS011;9459;50.254;19.014;2023-07-31T02:57:18;7.05;;;1.80;;
18659;SDS011;9459;50.254;19.014;2023-07-31T02:59:46;2.50;;;2.08;;
18659;SDS011;9459;50.254;19.014;2023-07-31T03:02:15;3.35;;;1.80;;
18659;SDS011;9459;50.254;19.014;2023-07-31T03:04:43;2.00;;;1.80;;
18659;SDS011;9459;50.254;19.014;2023-07-31T03:07:12;4.10;;;2.20;;
18659;SDS011;9459;50.254;19.014;2023-07-31T03:09:42;4.13;;;2.00;;
18659;SDS011;9459;50.254;19.014;2023-07-31T03:12:10;4.53;;;2.58;;
18659;SDS011;9459;50.254;19.014;2023-07-31T03:14:39;2.47;;;1.90;;
18659;SDS011;9459;50.254;19.014;2023-07-31T03:17:07;3.20;;;1.98;;
18659;SDS011;9459;50.254;19.014;2023-07-31T03:19:35;3.92;;;2.00;;
18659;SDS011;9459;50.254;19.014;2023-07-31T03:22:04;5.72;;;2.45;;
18659;SDS011;9459;50.254;19.014;2023-07-31T03:24:33;4.65;;;2.78;;
18659;SDS011;9459;50.254;19.014;2023-07-31T03:27:04;5.97;;;2.90;;
18659;SDS011;9459;50.254;19.014;2023-07-31T03:29:32;5.35;;;2.50;;
18659;SDS011;9459;50.254;19.014;2023-07-31T03:32:01;4.18;;;2.67;;
18659;SDS011;9459;50.254;19.014;2023-07-31T03:34:29;4.13;;;2.63;;
18659;SDS011;9459;50.254;19.014;2023-07-31T03:36:59;4.57;;;3.00;;
18659;SDS011;9459;50.254;19.014;2023-07-31T03:39:27;4.43;;;2.90;;
18659;SDS011;9459;50.254;19.014;2023-07-31T03:41:56;4.55;;;2.45;;
18659;SDS011;9459;50.254;19.014;2023-07-31T03:44:26;4.47;;;2.80;;
18659;SDS011;9459;50.254;19.014;2023-07-31T03:46:54;4.25;;;2.70;;
18659;SDS011;9459;50.254;19.014;2023-07-31T03:49:23;5.28;;;3.17;;
18659;SDS011;9459;50.254;19.014;2023-07-31T03:51:51;3.80;;;2.70;;
18659;SDS011;9459;50.254;19.014;2023-07-31T03:54:20;5.65;;;2.50;;
18659;SDS011;9459;50.254;19.014;2023-07-31T03:56:48;6.57;;;2.75;;
18659;SDS011;9459;50.254;19.014;2023-07-31T03:59:17;5.45;;;2.78;;
18659;SDS011;9459;50.254;19.014;2023-07-31T04:01:47;4.10;;;2.47;;
18659;SDS011;9459;50.254;19.014;2023-07-31T04:04:15;5.18;;;3.13;;
18659;SDS011;9459;50.254;19.014;2023-07-31T04:06:43;6.20;;;2.72;;
18659;SDS011;9459;50.254;19.014;2023-07-31T04:09:12;4.38;;;2.13;;
18659;SDS011;9459;50.254;19.014;2023-07-31T04:11:40;2.88;;;2.10;;
18659;SDS011;9459;50.254;19.014;2023-07-31T04:14:09;5.80;;;2.20;;
18659;SDS011;9459;50.254;19.014;2023-07-31T04:16:37;2.63;;;1.95;;
18659;SDS011;9459;50.254;19.014;2023-07-31T04:19:07;3.17;;;1.55;;
18659;SDS011;9459;50.254;19.014;2023-07-31T04:24:05;3.08;;;2.17;;
18659;SDS011;9459;50.254;19.014;2023-07-31T04:26:34;3.83;;;2.17;;
18659;SDS011;9459;50.254;19.014;2023-07-31T04:29:02;4.53;;;1.80;;
18659;SDS011;9459;50.254;19.014;2023-07-31T04:31:31;4.05;;;1.75;;
18659;SDS011;9459;50.254;19.014;2023-07-31T04:34:02;4.05;;;2.20;;
18659;SDS011;9459;50.254;19.014;2023-07-31T04:36:33;3.53;;;2.00;;
18659;SDS011;9459;50.254;19.014;2023-07-31T04:39:01;4.97;;;1.98;;
18659;SDS011;9459;50.254;19.014;2023-07-31T04:41:30;4.90;;;2.05;;
18659;SDS011;9459;50.254;19.014;2023-07-31T04:43:58;3.10;;;1.80;;
18659;SDS011;9459;50.254;19.014;2023-07-31T04:46:27;3.28;;;1.75;;
18659;SDS011;9459;50.254;19.014;2023-07-31T04:48:56;4.10;;;1.50;;
18659;SDS011;9459;50.254;19.014;2023-07-31T04:51:25;3.13;;;1.60;;
18659;SDS011;9459;50.254;19.014;2023-07-31T04:53:55;4.38;;;1.90;;
18659;SDS011;9459;50.254;19.014;2023-07-31T04:58:52;2.25;;;1.50;;
18659;SDS011;9459;50.254;19.014;2023-07-31T05:01:22;3.80;;;1.77;;
18659;SDS011;9459;50.254;19.014;2023-07-31T05:03:50;4.03;;;2.00;;
18659;SDS011;9459;50.254;19.014;2023-07-31T05:06:19;4.13;;;2.22;;
18659;SDS011;9459;50.254;19.014;2023-07-31T05:08:47;7.32;;;2.25;;
18659;SDS011;9459;50.254;19.014;2023-07-31T05:11:17;4.78;;;2.00;;
18659;SDS011;9459;50.254;19.014;2023-07-31T05:13:45;4.57;;;1.88;;
18659;SDS011;9459;50.254;19.014;2023-07-31T05:16:14;4.93;;;1.90;;
18659;SDS011;9459;50.254;19.014;2023-07-31T05:18:42;4.07;;;1.75;;
18659;SDS011;9459;50.254;19.014;2023-07-31T05:21:11;2.92;;;1.58;;
18659;SDS011;9459;50.254;19.014;2023-07-31T05:23:39;3.38;;;1.67;;
18659;SDS011;9459;50.254;19.014;2023-07-31T05:26:08;4.13;;;1.75;;
18659;SDS011;9459;50.254;19.014;2023-07-31T05:28:37;7.70;;;1.65;;
18659;SDS011;9459;50.254;19.014;2023-07-31T05:31:06;3.10;;;1.50;;
18659;SDS011;9459;50.254;19.014;2023-07-31T05:33:35;2.78;;;1.55;;
18659;SDS011;9459;50.254;19.014;2023-07-31T05:36:03;4.53;;;1.60;;
18659;SDS011;9459;50.254;19.014;2023-07-31T05:38:32;4.93;;;1.50;;
18659;SDS011;9459;50.254;19.014;2023-07-31T05:41:00;3.03;;;1.60;;
18659;SDS011;9459;50.254;19.014;2023-07-31T05:43:29;2.28;;;1.45;;
18659;SDS011;9459;50.254;19.014;2023-07-31T05:45:59;3.45;;;1.70;;
18659;SDS011;9459;50.254;19.014;2023-07-31T05:48:32;4.32;;;1.33;;
18659;SDS011;9459;50.254;19.014;2023-07-31T05:51:01;4.18;;;1.58;;
18659;SDS011;9459;50.254;19.014;2023-07-31T05:53:29;3.75;;;1.50;;
18659;SDS011;9459;50.254;19.014;2023-07-31T05:55:58;7.78;;;1.80;;
18659;SDS011;9459;50.254;19.014;2023-07-31T05:58:26;4.50;;;1.80;;
18659;SDS011;9459;50.254;19.014;2023-07-31T06:00:55;3.65;;;1.50;;
18659;SDS011;9459;50.254;19.014;2023-07-31T06:03:24;4.82;;;1.27;;
18659;SDS011;9459;50.254;19.014;2023-07-31T06:05:53;3.58;;;1.70;;
18659;SDS011;9459;50.254;19.014;2023-07-31T06:08:21;3.35;;;1.30;;
18659;SDS011;9459;50.254;19.014;2023-07-31T06:10:50;4.20;;;1.40;;
18659;SDS011;9459;50.254;19.014;2023-07-31T06:13:19;2.80;;;1.30;;
18659;SDS011;9459;50.254;19.014;2023-07-31T06:15:47;4.68;;;1.48;;
18659;SDS011;9459;50.254;19.014;2023-07-31T06:18:16;4.35;;;1.48;;
18659;SDS011;9459;50.254;19.014;2023-07-31T06:20:46;3.22;;;1.30;;
18659;SDS011;9459;50.254;19.014;2023-07-31T06:23:20;4.18;;;1.30;;
18659;SDS011;9459;50.254;19.014;2023-07-31T06:25:49;2.30;;;1.17;;
18659;SDS011;9459;50.254;19.014;2023-07-31T06:28:17;3.35;;;0.90;;
18659;SDS011;9459;50.254;19.014;2023-07-31T06:30:46;5.28;;;1.58;;
18659;SDS011;9459;50.254;19.014;2023-07-31T06:33:14;4.63;;;1.40;;
18659;SDS011;9459;50.254;19.014;2023-07-31T06:35:43;2.75;;;1.40;;
18659;SDS011;9459;50.254;19.014;2023-07-31T06:38:13;3.67;;;1.70;;
18659;SDS011;9459;50.254;19.014;2023-07-31T06:40:42;5.75;;;1.30;;
18659;SDS011;9459;50.254;19.014;2023-07-31T06:43:10;3.35;;;1.35;;
18659;SDS011;9459;50.254;19.014;2023-07-31T06:45:39;3.30;;;1.75;;
18659;SDS011;9459;50.254;19.014;2023-07-31T06:48:08;2.55;;;1.17;;
18659;SDS011;9459;50.254;19.014;2023-07-31T06:50:37;2.78;;;1.40;;
18659;SDS011;9459;50.254;19.014;2023-07-31T06:53:06;3.60;;;1.20;;
18659;SDS011;9459;50.254;19.014;2023-07-31T06:55:36;3.75;;;1.23;;
18659;SDS011;9459;50.254;19.014;2023-07-31T06:58:05;3.70;;;1.60;;
18659;SDS011;9459;50.254;19.014;2023-07-31T07:00:33;3.83;;;2.15;;
18659;SDS011;9459;50.254;19.014;2023-07-31T07:03:02;8.18;;;1.70;;
18659;SDS011;9459;50.254;19.014;2023-07-31T07:05:31;4.38;;;1.50;;
18659;SDS011;9459;50.254;19.014;2023-07-31T07:07:59;3.53;;;1.52;;
18659;SDS011;9459;50.254;19.014;2023-07-31T07:10:27;3.40;;;1.40;;
18659;SDS011;9459;50.254;19.014;2023-07-31T07:12:57;2.28;;;1.20;;
18659;SDS011;9459;50.254;19.014;2023-07-31T07:15:26;3.03;;;1.40;;
18659;SDS011;9459;50.254;19.014;2023-07-31T07:17:55;1.70;;;1.10;;
18659;SDS011;9459;50.254;19.014;2023-07-31T07:20:24;4.45;;;1.65;;
18659;SDS011;9459;50.254;19.014;2023-07-31T07:22:52;5.18;;;1.60;;
18659;SDS011;9459;50.254;19.014;2023-07-31T07:25:21;3.00;;;1.40;;
18659;SDS011;9459;50.254;19.014;2023-07-31T07:27:49;3.47;;;1.38;;
18659;SDS011;9459;50.254;19.014;2023-07-31T07:30:19;2.05;;;1.05;;
18659;SDS011;9459;50.254;19.014;2023-07-31T07:32:48;2.75;;;1.30;;
18659;SDS011;9459;50.254;19.014;2023-07-31T07:35:16;3.63;;;1.35;;
18659;SDS011;9459;50.254;19.014;2023-07-31T07:37:45;1.88;;;1.10;;
18659;SDS011;9459;50.254;19.014;2023-07-31T07:40:13;2.40;;;1.00;;
18659;SDS011;9459;50.254;19.014;2023-07-31T07:42:42;3.00;;;1.42;;
18659;SDS011;9459;50.254;19.014;2023-07-31T07:45:11;3.00;;;1.40;;
18659;SDS011;9459;50.254;19.014;2023-07-31T07:47:41;4.57;;;1.30;;
18659;SDS011;9459;50.254;19.014;2023-07-31T07:50:10;3.38;;;1.48;;
18659;SDS011;9459;50.254;19.014;2023-07-31T07:52:38;2.55;;;1.17;;
18659;SDS011;9459;50.254;19.014;2023-07-31T07:55:08;3.45;;;1.48;;
18659;SDS011;9459;50.254;19.014;2023-07-31T07:57:36;3.13;;;1.20;;
18659;SDS011;9459;50.254;19.014;2023-07-31T08:00:06;3.67;;;1.30;;
18659;SDS011;9459;50.254;19.014;2023-07-31T08:02:37;2.85;;;1.20;;
18659;SDS011;9459;50.254;19.014;2023-07-31T08:05:08;2.63;;;1.38;;
18659;SDS011;9459;50.254;19.014;2023-07-31T08:07:36;3.25;;;1.02;;
18659;SDS011;9459;50.254;19.014;2023-07-31T08:10:05;3.72;;;1.10;;
18659;SDS011;9459;50.254;19.014;2023-07-31T08:12:34;3.97;;;1.40;;
18659;SDS011;9459;50.254;19.014;2023-07-31T08:15:03;2.78;;;1.20;;
18659;SDS011;9459;50.254;19.014;2023-07-31T08:17:32;4.63;;;1.30;;
18659;SDS011;9459;50.254;19.014;2023-07-31T08:20:01;4.28;;;1.58;;
18659;SDS011;9459;50.254;19.014;2023-07-31T08:22:31;4.65;;;1.10;;
18659;SDS011;9459;50.254;19.014;2023-07-31T08:27:28;4.35;;;1.10;;
18659;SDS011;9459;50.254;19.014;2023-07-31T08:29:57;4.45;;;1.65;;
18659;SDS011;9459;50.254;19.014;2023-07-31T08:32:25;5.15;;;1.40;;
18659;SDS011;9459;50.254;19.014;2023-07-31T08:34:54;3.60;;;1.40;;
18659;SDS011;9459;50.254;19.014;2023-07-31T08:37:23;3.47;;;1.33;;
18659;SDS011;9459;50.254;19.014;2023-07-31T08:39:53;3.50;;;1.30;;
18659;SDS011;9459;50.254;19.014;2023-07-31T08:44:50;2.35;;;1.30;;
18659;SDS011;9459;50.254;19.014;2023-07-31T08:47:19;3.67;;;1.27;;
18659;SDS011;9459;50.254;19.014;2023-07-31T08:49:49;2.17;;;1.10;;
18659;SDS011;9459;50.254;19.014;2023-07-31T08:52:18;2.58;;;1.10;;
18659;SDS011;9459;50.254;19.014;2023-07-31T08:54:47;2.33;;;1.35;;
18659;SDS011;9459;50.254;19.014;2023-07-31T08:57:16;3.45;;;1.10;;
18659;SDS011;9459;50.254;19.014;2023-07-31T08:59:45;1.83;;;1.02;;
18659;SDS011;9459;50.254;19.014;2023-07-31T09:02:14;2.25;;;1.15;;
18659;SDS011;9459;50.254;19.014;2023-07-31T09:04:43;3.35;;;1.23;;
18659;SDS011;9459;50.254;19.014;2023-07-31T09:07:12;3.17;;;1.30;;
18659;SDS011;9459;50.254;19.014;2023-07-31T09:09:42;2.65;;;1.13;;
18659;SDS011;9459;50.254;19.014;2023-07-31T09:12:10;2.83;;;1.20;;
18659;SDS011;9459;50.254;19.014;2023-07-31T09:14:40;2.60;;;1.17;;
18659;SDS011;9459;50.254;19.014;2023-07-31T09:17:10;3.78;;;1.67;;
18659;SDS011;9459;50.254;19.014;2023-07-31T09:19:39;2.45;;;1.20;;
18659;SDS011;9459;50.254;19.014;2023-07-31T09:22:07;2.97;;;1.15;;
18659;SDS011;9459;50.254;19.014;2023-07-31T09:24:36;1.95;;;1.10;;
18659;SDS011;9459;50.254;19.014;2023-07-31T09:27:05;2.30;;;1.20;;
18659;SDS011;9459;50.254;19.014;2023-07-31T09:29:34;1.45;;;0.88;;
18659;SDS011;9459;50.254;19.014;2023-07-31T09:32:04;1.80;;;1.10;;
18659;SDS011;9459;50.254;19.014;2023-07-31T09:34:37;2.13;;;1.30;;
18659;SDS011;9459;50.254;19.014;2023-07-31T09:37:06;2.00;;;0.98;;
18659;SDS011;9459;50.254;19.014;2023-07-31T09:39:45;3.40;;;1.20;;
18659;SDS011;9459;50.254;19.014;2023-07-31T09:42:14;2.83;;;1.15;;
18659;SDS011;9459;50.254;19.014;2023-07-31T09:44:53;3.83;;;0.90;;
18659;SDS011;9459;50.254;19.014;2023-07-31T09:47:26;2.38;;;1.13;;
18659;SDS011;9459;50.254;19.014;2023-07-31T09:49:56;2.97;;;1.15;;
18659;SDS011;9459;50.254;19.014;2023-07-31T09:52:25;2.88;;;1.35;;
18659;SDS011;9459;50.254;19.014;2023-07-31T09:54:55;1.45;;;0.77;;
18659;SDS011;9459;50.254;19.014;2023-07-31T09:57:23;2.55;;;1.10;;
18659;SDS011;9459;50.254;19.014;2023-07-31T09:59:52;3.33;;;1.20;;
18659;SDS011;9459;50.254;19.014;2023-07-31T10:02:22;3.50;;;1.33;;
18659;SDS011;9459;50.254;19.014;2023-07-31T10:04:52;3.30;;;1.15;;
18659;SDS011;9459;50.254;19.014;2023-07-31T10:07:21;2.00;;;1.20;;
18659;SDS011;9459;50.254;19.014;2023-07-31T10:09:51;1.95;;;1.30;;
18659;SDS011;9459;50.254;19.014;2023-07-31T10:12:20;2.97;;;1.30;;
18659;SDS011;9459;50.254;19.014;2023-07-31T10:14:51;3.33;;;1.20;;
18659;SDS011;9459;50.254;19.014;2023-07-31T10:17:20;2.00;;;1.13;;
18659;SDS011;9459;50.254;19.014;2023-07-31T10:19:49;3.00;;;1.40;;
18659;SDS011;9459;50.254;19.014;2023-07-31T10:22:20;3.73;;;1.33;;
18659;SDS011;9459;50.254;19.014;2023-07-31T10:24:49;2.75;;;1.40;;
18659;SDS011;9459;50.254;19.014;2023-07-31T10:27:18;4.27;;;1.37;;
18659;SDS011;9459;50.254;19.014;2023-07-31T10:29:46;3.75;;;1.30;;
18659;SDS011;9459;50.254;19.014;2023-07-31T10:32:16;3.92;;;1.02;;
18659;SDS011;9459;50.254;19.014;2023-07-31T10:34:45;3.28;;;1.30;;
18659;SDS011;9459;50.254;19.014;2023-07-31T10:37:22;3.75;;;1.30;;
18659;SDS011;9459;50.254;19.014;2023-07-31T10:39:56;5.00;;;1.20;;
18659;SDS011;9459;50.254;19.014;2023-07-31T10:42:30;2.20;;;1.08;;
18659;SDS011;9459;50.254;19.014;2023-07-31T10:45:01;1.15;;;1.00;;
18659;SDS011;9459;50.254;19.014;2023-07-31T10:47:31;2.88;;;1.33;;
18659;SDS011;9459;50.254;19.014;2023-07-31T10:50:18;1.67;;;1.13;;
18659;SDS011;9459;50.254;19.014;2023-07-31T10:52:50;4.15;;;1.38;;
18659;SDS011;9459;50.254;19.014;2023-07-31T10:55:29;2.90;;;1.45;;
18659;SDS011;9459;50.254;19.014;2023-07-31T10:58:05;2.80;;;1.42;;
18659;SDS011;9459;50.254;19.014;2023-07-31T11:00:36;2.63;;;1.17;;
18659;SDS011;9459;50.254;19.014;2023-07-31T11:03:06;2.35;;;1.60;;
18659;SDS011;9459;50.254;19.014;2023-07-31T11:05:42;2.88;;;1.23;;
18659;SDS011;9459;50.254;19.014;2023-07-31T11:08:16;2.45;;;1.27;;
18659;SDS011;9459;50.254;19.014;2023-07-31T11:10:47;4.60;;;1.40;;
18659;SDS011;9459;50.254;19.014;2023-07-31T11:13:16;5.30;;;1.45;;
18659;SDS011;9459;50.254;19.014;2023-07-31T11:15:45;2.93;;;1.37;;
18659;SDS011;9459;50.254;19.014;2023-07-31T11:18:13;3.33;;;1.30;;
18659;SDS011;9459;50.254;19.014;2023-07-31T11:20:44;1.60;;;1.13;;
18659;SDS011;9459;50.254;19.014;2023-07-31T11:23:12;3.13;;;1.42;;
18659;SDS011;9459;50.254;19.014;2023-07-31T11:25:45;3.22;;;1.13;;
18659;SDS011;9459;50.254;19.014;2023-07-31T11:28:15;2.08;;;1.13;;
18659;SDS011;9459;50.254;19.014;2023-07-31T11:30:44;2.45;;;1.25;;
18659;SDS011;9459;50.254;19.014;2023-07-31T11:33:13;2.83;;;1.30;;
18659;SDS011;9459;50.254;19.014;2023-07-31T11:35:43;2.17;;;1.23;;
18659;SDS011;9459;50.254;19.014;2023-07-31T11:38:18;2.03;;;1.15;;
18659;SDS011;9459;50.254;19.014;2023-07-31T11:40:50;2.67;;;1.25;;
18659;SDS011;9459;50.254;19.014;2023-07-31T11:43:19;1.80;;;1.20;;
18659;SDS011;9459;50.254;19.014;2023-07-31T11:45:48;3.60;;;1.60;;
18659;SDS011;9459;50.254;19.014;2023-07-31T11:48:21;2.75;;;1.10;;
18659;SDS011;9459;50.254;19.014;2023-07-31T11:50:50;2.28;;;1.08;;
18659;SDS011;9459;50.254;19.014;2023-07-31T11:53:22;2.80;;;1.30;;
18659;SDS011;9459;50.254;19.014;2023-07-31T11:55:55;1.58;;;1.00;;
18659;SDS011;9459;50.254;19.014;2023-07-31T11:58:23;2.72;;;1.30;;
18659;SDS011;9459;50.254;19.014;2023-07-31T12:00:52;3.03;;;1.20;;
18659;SDS011;9459;50.254;19.014;2023-07-31T12:03:21;2.90;;;1.15;;
18659;SDS011;9459;50.254;19.014;2023-07-31T12:05:51;5.20;;;1.10;;
18659;SDS011;9459;50.254;19.014;2023-07-31T12:08:22;1.67;;;1.08;;
18659;SDS011;9459;50.254;19.014;2023-07-31T12:10:52;2.42;;;1.33;;
18659;SDS011;9459;50.254;19.014;2023-07-31T12:13:21;2.38;;;1.17;;
18659;SDS011;9459;50.254;19.014;2023-07-31T12:18:22;3.50;;;1.27;;
18659;SDS011;9459;50.254;19.014;2023-07-31T12:20:54;3.83;;;1.40;;
18659;SDS011;9459;50.254;19.014;2023-07-31T12:23:24;2.97;;;1.50;;
18659;SDS011;9459;50.254;19.014;2023-07-31T12:26:02;2.08;;;1.35;;
18659;SDS011;9459;50.254;19.014;2023-07-31T12:28:34;2.80;;;1.33;;
18659;SDS011;9459;50.254;19.014;2023-07-31T12:31:04;4.60;;;1.50;;
18659;SDS011;9459;50.254;19.014;2023-07-31T12:33:34;5.97;;;1.95;;
18659;SDS011;9459;50.254;19.014;2023-07-31T12:36:04;3.07;;;1.40;;
18659;SDS011;9459;50.254;19.014;2023-07-31T12:38:36;2.50;;;1.30;;
18659;SDS011;9459;50.254;19.014;2023-07-31T12:41:04;2.10;;;1.20;;
18659;SDS011;9459;50.254;19.014;2023-07-31T12:43:34;2.50;;;1.42;;
18659;SDS011;9459;50.254;19.014;2023-07-31T12:46:03;1.48;;;0.88;;
18659;SDS011;9459;50.254;19.014;2023-07-31T12:48:32;6.57;;;1.45;;
18659;SDS011;9459;50.254;19.014;2023-07-31T12:51:00;1.95;;;1.08;;
18659;SDS011;9459;50.254;19.014;2023-07-31T12:53:29;5.20;;;1.27;;
18659;SDS011;9459;50.254;19.014;2023-07-31T12:56:00;4.10;;;1.52;;
18659;SDS011;9459;50.254;19.014;2023-07-31T12:58:29;2.85;;;1.52;;
18659;SDS011;9459;50.254;19.014;2023-07-31T13:00:58;2.78;;;1.40;;
18659;SDS011;9459;50.254;19.014;2023-07-31T13:03:26;4.45;;;1.30;;
18659;SDS011;9459;50.254;19.014;2023-07-31T13:05:55;1.98;;;1.15;;
18659;SDS011;9459;50.254;19.014;2023-07-31T13:08:23;2.85;;;1.40;;
18659;SDS011;9459;50.254;19.014;2023-07-31T13:10:52;3.88;;;1.20;;
18659;SDS011;9459;50.254;19.014;2023-07-31T13:13:22;2.65;;;1.40;;
18659;SDS011;9459;50.254;19.014;2023-07-31T13:15:51;2.80;;;1.30;;
18659;SDS011;9459;50.254;19.014;2023-07-31T13:18:20;4.25;;;1.23;;
18659;SDS011;9459;50.254;19.014;2023-07-31T13:20:48;3.83;;;1.23;;
18659;SDS011;9459;50.254;19.014;2023-07-31T13:23:17;2.28;;;0.98;;
18659;SDS011;9459;50.254;19.014;2023-07-31T13:25:45;3.13;;;1.25;;
18659;SDS011;9459;50.254;19.014;2023-07-31T13:28:14;4.28;;;1.60;;
18659;SDS011;9459;50.254;19.014;2023-07-31T13:30:44;3.28;;;1.30;;
18659;SDS011;9459;50.254;19.014;2023-07-31T13:33:13;1.42;;;1.20;;
18659;SDS011;9459;50.254;19.014;2023-07-31T13:36:01;5.00;;;1.58;;
18659;SDS011;9459;50.254;19.014;2023-07-31T13:38:30;2.22;;;1.35;;
18659;SDS011;9459;50.254;19.014;2023-07-31T13:40:58;5.72;;;1.80;;
18659;SDS011;9459;50.254;19.014;2023-07-31T13:43:27;2.55;;;1.48;;
18659;SDS011;9459;50.254;19.014;2023-07-31T13:45:57;2.83;;;1.20;;
18659;SDS011;9459;50.254;19.014;2023-07-31T13:48:30;4.32;;;1.60;;
18659;SDS011;9459;50.254;19.014;2023-07-31T13:50:59;4.20;;;1.65;;
18659;SDS011;9459;50.254;19.014;2023-07-31T13:53:28;2.72;;;1.33;;
18659;SDS011;9459;50.254;19.014;2023-07-31T13:55:56;2.70;;;1.48;;
18659;SDS011;9459;50.254;19.014;2023-07-31T13:58:25;3.40;;;1.50;;
18659;SDS011;9459;50.254;19.014;2023-07-31T14:00:53;3.92;;;2.03;;
18659;SDS011;9459;50.254;19.014;2023-07-31T14:03:23;2.85;;;1.67;;
18659;SDS011;9459;50.254;19.014;2023-07-31T14:05:52;4.65;;;1.80;;
18659;SDS011;9459;50.254;19.014;2023-07-31T14:08:22;6.47;;;2.03;;
18659;SDS011;9459;50.254;19.014;2023-07-31T14:10:51;3.40;;;1.23;;
18659;SDS011;9459;50.254;19.014;2023-07-31T14:13:19;2.53;;;1.08;;
18659;SDS011;9459;50.254;19.014;2023-07-31T14:15:47;3.42;;;1.35;;
18659;SDS011;9459;50.254;19.014;2023-07-31T14:18:16;3.55;;;1.30;;
18659;SDS011;9459;50.254;19.014;2023-07-31T14:20:46;4.38;;;1.27;;
18659;SDS011;9459;50.254;19.014;2023-07-31T14:23:14;3.30;;;1.42;;
18659;SDS011;9459;50.254;19.014;2023-07-31T14:25:43;3.40;;;1.70;;
18659;SDS011;9459;50.254;19.014;2023-07-31T14:28:11;4.60;;;1.70;;
18659;SDS011;9459;50.254;19.014;2023-07-31T14:30:40;3.97;;;1.40;;
18659;SDS011;9459;50.254;19.014;2023-07-31T14:33:09;4.63;;;1.55;;
18659;SDS011;9459;50.254;19.014;2023-07-31T14:35:37;5.57;;;1.52;;
18659;SDS011;9459;50.254;19.014;2023-07-31T14:38:07;3.60;;;1.52;;
18659;SDS011;9459;50.254;19.014;2023-07-31T14:40:36;4.15;;;1.65;;
18659;SDS011;9459;50.254;19.014;2023-07-31T14:43:05;3.15;;;1.40;;
18659;SDS011;9459;50.254;19.014;2023-07-31T14:45:33;3.88;;;1.30;;
18659;SDS011;9459;50.254;19.014;2023-07-31T14:48:02;4.80;;;1.60;;
18659;SDS011;9459;50.254;19.014;2023-07-31T14:50:31;6.72;;;2.08;;
18659;SDS011;9459;50.254;19.014;2023-07-31T14:52:59;3.92;;;1.63;;
18659;SDS011;9459;50.254;19.014;2023-07-31T14:55:29;3.53;;;1.48;;
18659;SDS011;9459;50.254;19.014;2023-07-31T14:57:58;3.53;;;1.55;;
18659;SDS011;9459;50.254;19.014;2023-07-31T15:00:27;3.08;;;1.40;;
18659;SDS011;9459;50.254;19.014;2023-07-31T15:02:55;4.43;;;1.40;;
18659;SDS011;9459;50.254;19.014;2023-07-31T15:05:24;4.53;;;1.33;;
18659;SDS011;9459;50.254;19.014;2023-07-31T15:07:53;3.50;;;1.17;;
18659;SDS011;9459;50.254;19.014;2023-07-31T15:10:21;4.25;;;1.70;;
18659;SDS011;9459;50.254;19.014;2023-07-31T15:12:51;4.07;;;1.20;;